TimeAKDT,TemperatureF,Dew PointF,Humidity,Sea Level PressureIn,VisibilityMPH,Wind Direction,Wind SpeedMPH,Gust SpeedMPH,PrecipitationIn,Events,Conditions,WindDirDegrees,DateUTC
12:01 AM,61.0,48.9,64,29.85,10.0,Calm,Calm,-,N/A,,Clear,0,2013-07-09 08:01:00
1:01 AM,57.0,46.0,67,29.87,10.0,North,6.9,-,N/A,,Clear,360,2013-07-09 09:01:00
2:01 AM,55.0,45.0,69,29.88,10.0,North,8.1,-,N/A,,Clear,350,2013-07-09 10:01:00
3:01 AM,52.0,44.1,74,29.90,10.0,Calm,Calm,-,N/A,,Clear,0,2013-07-09 11:01:00
4:01 AM,50.0,43.0,77,29.91,10.0,NW,6.9,-,N/A,,Clear,320,2013-07-09 12:01:00
5:01 AM,52.0,44.1,74,29.92,10.0,NNW,5.8,-,N/A,,Clear,340,2013-07-09 13:01:00
6:01 AM,52.0,44.1,74,29.93,10.0,North,4.6,-,N/A,,Clear,350,2013-07-09 14:01:00
7:01 AM,48.9,46.0,90,29.94,10.0,Calm,Calm,-,N/A,,Clear,0,2013-07-09 15:01:00
8:01 AM,53.1,46.0,77,29.95,10.0,South,5.8,-,N/A,,Scattered Clouds,190,2013-07-09 16:01:00
9:01 AM,57.0,46.9,69,29.94,10.0,Variable,5.8,-,N/A,,Clear,0,2013-07-09 17:01:00
10:01 AM,61.0,46.0,58,29.95,10.0,NW,9.2,-,N/A,,Clear,310,2013-07-09 18:01:00
11:01 AM,63.0,46.9,56,29.95,10.0,Variable,5.8,-,N/A,,Clear,0,2013-07-09 19:01:00
12:01 PM,64.9,46.9,52,29.95,10.0,Variable,3.5,-,N/A,,Clear,0,2013-07-09 20:01:00
1:01 PM,64.9,46.9,52,29.96,10.0,NW,4.6,-,N/A,,Mostly Cloudy,320,2013-07-09 21:01:00
2:01 PM,64.9,46.9,52,29.96,10.0,NNE,8.1,-,N/A,,Overcast,30,2013-07-09 22:01:00
3:01 PM,66.0,46.9,50,29.97,10.0,ESE,9.2,-,N/A,,Overcast,110,2013-07-09 23:01:00
4:01 PM,64.0,46.9,54,29.99,10.0,ESE,9.2,-,N/A,,Overcast,110,2013-07-10 00:01:00
5:01 PM,64.0,46.0,52,30.00,10.0,East,6.9,-,N/A,,Overcast,100,2013-07-10 01:01:00
6:01 PM,63.0,46.0,54,30.01,10.0,East,10.4,-,N/A,,Overcast,80,2013-07-10 02:01:00
7:01 PM,62.1,46.0,56,30.03,10.0,East,9.2,-,N/A,,Overcast,80,2013-07-10 03:01:00
8:01 PM,61.0,46.0,58,30.04,10.0,ENE,8.1,-,N/A,,Overcast,70,2013-07-10 04:01:00
9:01 PM,60.1,46.0,60,30.06,10.0,East,5.8,-,N/A,,Overcast,90,2013-07-10 05:01:00
10:01 PM,59.0,46.0,62,30.07,10.0,Calm,Calm,-,N/A,,Overcast,0,2013-07-10 06:01:00
11:01 PM,57.9,46.9,67,30.09,10.0,East,4.6,-,N/A,,Overcast,90,2013-07-10 07:01:00